createdAt,value
2023-06-29T00:00:50.664Z,5.90
2023-06-29T00:05:52.440Z,4.88
2023-06-29T00:10:54.477Z,3.63
2023-06-29T00:15:56.152Z,4.68
2023-06-29T00:20:58.306Z,4.18
2023-06-29T00:26:01.790Z,4.47
2023-06-29T00:31:03.535Z,3.60
2023-06-29T00:36:05.449Z,4.25
2023-06-29T00:41:07.030Z,4.43
2023-06-29T00:46:09.210Z,5.03
2023-06-29T00:51:11.419Z,5.07
2023-06-29T00:56:13.976Z,3.65
2023-06-29T01:01:16.234Z,4.63
2023-06-29T01:06:20.769Z,3.35
2023-06-29T01:11:22.395Z,4.43
2023-06-29T01:16:24.286Z,4.03
2023-06-29T01:21:26.236Z,4.28
2023-06-29T01:26:27.900Z,4.13
2023-06-29T01:31:29.583Z,5.20
2023-06-29T01:36:41.968Z,5.55
2023-06-29T01:41:44.502Z,4.50
2023-06-29T01:46:46.602Z,4.32
2023-06-29T01:51:48.168Z,4.70
2023-06-29T01:56:49.900Z,4.68
2023-06-29T02:01:51.819Z,3.78
2023-06-29T02:06:53.519Z,4.13
2023-06-29T02:11:55.107Z,5.70
2023-06-29T02:16:56.835Z,4.18
2023-06-29T02:21:58.480Z,3.97
2023-06-29T02:27:00.057Z,4.75
2023-06-29T02:32:01.698Z,4.45
2023-06-29T02:37:03.252Z,5.45
2023-06-29T02:42:04.952Z,6.13
2023-06-29T02:47:06.679Z,4.15
2023-06-29T02:52:08.418Z,4.85
2023-06-29T02:57:10.357Z,4.88
2023-06-29T03:02:12.175Z,3.60
2023-06-29T03:07:13.852Z,6.22
2023-06-29T03:12:15.473Z,6.40
2023-06-29T03:17:17.596Z,5.38
2023-06-29T03:22:19.252Z,5.32
2023-06-29T03:27:20.947Z,4.28
2023-06-29T03:32:22.578Z,8.75
2023-06-29T03:37:24.201Z,7.05
2023-06-29T03:42:26.372Z,4.85
2023-06-29T03:47:28.045Z,4.55
2023-06-29T03:52:29.650Z,4.30
2023-06-29T03:57:31.591Z,4.65
2023-06-29T04:02:33.360Z,4.15
2023-06-29T04:07:35.125Z,3.90
2023-06-29T04:12:36.722Z,5.63
2023-06-29T04:17:38.370Z,5.18
2023-06-29T04:22:40.008Z,4.47
2023-06-29T04:27:42.554Z,4.30
2023-06-29T04:32:44.914Z,5.38
2023-06-29T04:37:46.615Z,5.43
2023-06-29T04:42:49.471Z,4.63
2023-06-29T04:47:51.207Z,5.82
2023-06-29T04:52:56.930Z,4.72
2023-06-29T04:57:58.765Z,4.65
2023-06-29T05:03:00.891Z,5.03
2023-06-29T05:08:02.562Z,5.03
2023-06-29T05:13:04.181Z,4.88
2023-06-29T05:18:05.911Z,4.75
2023-06-29T05:23:07.635Z,6.03
2023-06-29T05:28:09.610Z,5.28
2023-06-29T05:33:11.426Z,4.78
2023-06-29T05:38:13.178Z,5.20
2023-06-29T05:43:14.739Z,6.22
2023-06-29T05:48:16.370Z,6.10
2023-06-29T05:53:17.934Z,5.45
2023-06-29T05:58:19.544Z,6.82
2023-06-29T06:03:21.945Z,5.88
2023-06-29T06:08:23.538Z,6.53
2023-06-29T06:13:25.123Z,5.82
2023-06-29T06:18:27.260Z,4.50
2023-06-29T06:23:28.848Z,5.03
2023-06-29T06:28:30.428Z,4.25
2023-06-29T06:33:34.236Z,3.97
2023-06-29T06:38:49.500Z,6.72
2023-06-29T06:43:52.793Z,4.25
2023-06-29T06:48:54.482Z,5.63
2023-06-29T06:53:56.395Z,4.82
2023-06-29T06:58:58.143Z,4.63
2023-06-29T07:03:59.759Z,7.90
2023-06-29T07:09:01.395Z,5.55
2023-06-29T07:14:03.041Z,4.47
2023-06-29T07:24:18.751Z,5.95
2023-06-29T07:29:20.409Z,6.40
2023-06-29T07:34:24.537Z,4.07
2023-06-29T07:39:26.912Z,4.65
2023-06-29T07:44:28.772Z,4.43
2023-06-29T07:49:30.453Z,7.68
2023-06-29T07:54:31.992Z,4.55
2023-06-29T07:59:33.734Z,4.60
2023-06-29T08:09:39.825Z,4.00
2023-06-29T08:14:41.622Z,4.88
2023-06-29T08:19:43.216Z,5.40
2023-06-29T08:24:44.943Z,5.57
2023-06-29T08:29:46.527Z,3.58
2023-06-29T08:34:48.124Z,5.68
2023-06-29T08:39:49.694Z,6.72
2023-06-29T08:44:51.561Z,6.53
2023-06-29T08:49:57.136Z,4.68
2023-06-29T08:54:59.625Z,3.28
2023-06-29T09:00:01.527Z,3.63
2023-06-29T09:05:03.724Z,4.72
2023-06-29T09:10:05.695Z,3.85
2023-06-29T09:15:14.989Z,3.63
2023-06-29T09:20:21.172Z,5.03
2023-06-29T09:25:34.056Z,3.38
2023-06-29T09:30:38.645Z,3.97
2023-06-29T09:35:41.915Z,3.42
2023-06-29T09:41:03.626Z,4.60
2023-06-29T09:46:09.097Z,3.85
2023-06-29T09:51:10.961Z,5.13
2023-06-29T09:56:14.640Z,4.30
2023-06-29T10:01:19.256Z,3.65
2023-06-29T10:06:23.022Z,5.03
2023-06-29T10:11:27.763Z,4.95
2023-06-29T10:16:31.536Z,4.90
2023-06-29T10:21:33.936Z,5.07
2023-06-29T10:26:35.793Z,5.53
2023-06-29T10:31:37.441Z,3.88
2023-06-29T10:36:47.078Z,3.50
2023-06-29T10:41:51.563Z,6.18
2023-06-29T10:46:55.609Z,3.90
2023-06-29T10:52:07.100Z,3.67
2023-06-29T10:57:09.114Z,4.90
2023-06-29T11:02:11.179Z,5.40
2023-06-29T11:07:13.876Z,3.70
2023-06-29T11:12:16.829Z,4.53
2023-06-29T11:17:21.281Z,3.83
2023-06-29T11:22:23.148Z,3.75
2023-06-29T11:27:24.793Z,4.97
2023-06-29T11:32:27.543Z,5.40
2023-06-29T11:37:29.589Z,6.03
2023-06-29T11:42:31.395Z,3.17
2023-06-29T11:47:33.928Z,4.60
2023-06-29T11:52:36.062Z,3.13
2023-06-29T11:57:38.856Z,3.97
2023-06-29T12:02:44.040Z,3.20
2023-06-29T12:07:46.442Z,4.32
2023-06-29T12:12:50.171Z,3.83
2023-06-29T12:22:56.706Z,4.80
2023-06-29T12:27:58.315Z,3.55
2023-06-29T12:33:01.494Z,4.35
2023-06-29T12:38:03.290Z,2.15
2023-06-29T12:43:05.001Z,3.63
2023-06-29T12:48:06.746Z,5.63
2023-06-29T12:53:08.426Z,3.10
2023-06-29T12:58:10.153Z,2.30
2023-06-29T13:03:16.198Z,3.17
2023-06-29T13:08:17.936Z,3.28
2023-06-29T13:13:19.646Z,4.40
2023-06-29T13:18:21.295Z,3.25
2023-06-29T13:23:22.921Z,2.97
2023-06-29T13:28:24.547Z,4.45
2023-06-29T13:33:26.167Z,2.10
2023-06-29T13:38:27.740Z,3.85
2023-06-29T13:43:29.330Z,2.30
2023-06-29T13:48:31.003Z,3.92
2023-06-29T13:53:33.216Z,3.10
2023-06-29T13:58:35.144Z,2.88
2023-06-29T14:03:36.807Z,4.35
2023-06-29T14:08:38.432Z,6.57
2023-06-29T14:13:40.144Z,3.28
2023-06-29T14:18:41.926Z,5.72
2023-06-29T14:23:43.565Z,2.30
2023-06-29T14:28:45.233Z,2.45
2023-06-29T14:33:47.013Z,2.92
2023-06-29T14:38:50.525Z,3.08
2023-06-29T14:43:52.931Z,4.15
2023-06-29T14:48:54.534Z,2.65
2023-06-29T14:53:56.088Z,2.55
2023-06-29T14:58:57.935Z,5.47
2023-06-29T15:03:59.745Z,5.10
2023-06-29T15:09:01.395Z,2.22
2023-06-29T15:14:03.054Z,4.40
2023-06-29T15:19:04.772Z,2.22
2023-06-29T15:24:06.431Z,4.03
2023-06-29T15:29:08.000Z,2.45
2023-06-29T15:34:09.739Z,3.13
2023-06-29T15:39:11.352Z,3.00
2023-06-29T15:44:13.041Z,2.92
2023-06-29T15:49:14.668Z,2.17
2023-06-29T15:54:18.265Z,4.43
2023-06-29T15:59:20.068Z,9.50
2023-06-29T16:04:22.830Z,10.35
2023-06-29T16:09:24.455Z,10.77
2023-06-29T16:14:26.017Z,10.05
2023-06-29T16:19:27.651Z,7.93
2023-06-29T16:24:29.213Z,3.83
2023-06-29T16:29:30.805Z,5.10
2023-06-29T16:34:32.579Z,4.15
2023-06-29T16:39:34.169Z,3.33
2023-06-29T16:44:35.735Z,3.97
2023-06-29T16:49:39.144Z,3.60
2023-06-29T16:54:40.723Z,2.58
2023-06-29T16:59:42.434Z,4.30
2023-06-29T17:04:44.056Z,3.17
2023-06-29T17:09:45.698Z,2.63
2023-06-29T17:14:48.590Z,3.03
2023-06-29T17:19:50.387Z,3.35
2023-06-29T17:24:52.054Z,4.20
2023-06-29T17:29:53.658Z,3.28
2023-06-29T17:34:55.707Z,2.05
2023-06-29T17:39:57.266Z,3.60
2023-06-29T17:44:59.099Z,2.58
2023-06-29T17:50:00.737Z,2.20
2023-06-29T17:55:02.638Z,2.45
2023-06-29T18:00:06.580Z,2.50
2023-06-29T18:05:09.154Z,1.90
2023-06-29T18:10:10.947Z,2.28
2023-06-29T18:15:13.094Z,2.53
2023-06-29T18:20:16.929Z,1.73
2023-06-29T18:25:18.595Z,3.33
2023-06-29T18:30:20.220Z,1.35
2023-06-29T18:35:21.806Z,1.48
2023-06-29T18:40:28.136Z,1.40
2023-06-29T18:45:31.013Z,2.03
2023-06-29T18:50:32.913Z,2.17
2023-06-29T18:55:36.146Z,1.98
2023-06-29T19:00:37.896Z,1.98
2023-06-29T19:05:39.651Z,2.55
2023-06-29T19:10:41.216Z,3.67
2023-06-29T19:15:44.516Z,1.10
2023-06-29T19:20:46.732Z,1.65
2023-06-29T19:25:48.462Z,1.80
2023-06-29T19:30:50.188Z,1.92
2023-06-29T19:35:51.729Z,1.95
2023-06-29T19:40:53.277Z,0.90
2023-06-29T19:45:54.996Z,1.08
2023-06-29T19:50:56.837Z,4.70
2023-06-29T19:55:58.604Z,2.28
2023-06-29T20:01:01.147Z,1.30
2023-06-29T20:06:02.738Z,2.45
2023-06-29T20:11:04.287Z,1.30
2023-06-29T20:16:06.086Z,2.17
2023-06-29T20:21:07.696Z,2.13
2023-06-29T20:26:09.394Z,1.08
2023-06-29T20:31:11.053Z,1.60
2023-06-29T20:36:14.083Z,3.47
2023-06-29T20:41:15.678Z,1.55
2023-06-29T20:46:17.452Z,1.20
2023-06-29T20:51:19.006Z,1.48
2023-06-29T20:56:20.867Z,1.88
2023-06-29T21:01:22.863Z,1.70
2023-06-29T21:06:25.607Z,2.63
2023-06-29T21:11:27.320Z,3.38
2023-06-29T21:16:29.129Z,2.17
2023-06-29T21:21:30.877Z,2.30
2023-06-29T21:26:32.485Z,1.00
2023-06-29T21:31:35.147Z,1.98
2023-06-29T21:36:36.970Z,2.25
2023-06-29T21:41:38.635Z,1.90
2023-06-29T21:46:40.182Z,2.17
2023-06-29T21:51:41.793Z,1.95
2023-06-29T21:56:43.506Z,2.78
2023-06-29T22:01:45.150Z,1.35
2023-06-29T22:06:47.041Z,1.83
2023-06-29T22:11:49.189Z,4.93
2023-06-29T22:16:50.959Z,2.00
2023-06-29T22:21:52.515Z,1.90
2023-06-29T22:26:54.150Z,3.55
2023-06-29T22:31:55.773Z,2.20
2023-06-29T22:36:57.317Z,2.97
2023-06-29T22:41:58.933Z,2.42
2023-06-29T22:47:00.487Z,2.83
2023-06-29T22:52:02.010Z,2.63
2023-06-29T22:57:04.108Z,2.90
2023-06-29T23:02:05.934Z,2.83
2023-06-29T23:07:08.898Z,2.22
2023-06-29T23:12:10.630Z,2.05
2023-06-29T23:17:16.391Z,1.35
2023-06-29T23:22:19.535Z,2.75
2023-06-29T23:27:21.067Z,2.38
2023-06-29T23:32:22.753Z,2.10
2023-06-29T23:37:24.415Z,2.33
2023-06-29T23:42:25.991Z,1.98
2023-06-29T23:47:31.974Z,1.70
2023-06-29T23:52:33.641Z,4.28
2023-06-29T23:57:35.509Z,2.10
